createdAt,value
2018-05-07T00:01:55.975Z,102226.45
2018-05-07T00:04:59.303Z,102229.80
2018-05-07T00:08:02.659Z,102223.28
2018-05-07T00:11:05.980Z,102219.28
2018-05-07T00:14:09.394Z,102220.48
2018-05-07T00:17:12.778Z,102222.50
2018-05-07T00:20:16.120Z,102214.42
2018-05-07T00:23:20.242Z,102216.48
2018-05-07T00:26:24.320Z,102218.77
2018-05-07T00:29:27.640Z,102217.64
2018-05-07T00:32:30.953Z,102216.48
2018-05-07T00:35:35.042Z,102216.92
2018-05-07T00:38:38.430Z,102220.92
2018-05-07T00:41:41.750Z,102216.78
2018-05-07T00:44:46.659Z,102220.08
2018-05-07T00:47:50.053Z,102214.71
2018-05-07T00:50:53.471Z,102214.05
2018-05-07T00:53:56.858Z,102217.77
2018-05-07T00:57:00.257Z,102221.59
2018-05-07T01:00:03.585Z,102222.73
2018-05-07T01:03:06.970Z,102217.05
2018-05-07T01:06:10.272Z,102207.11
2018-05-07T01:09:13.643Z,102203.36
2018-05-07T01:12:16.958Z,102205.80
2018-05-07T01:15:20.354Z,102214.00
2018-05-07T01:18:23.672Z,102213.80
2018-05-07T01:21:26.979Z,102218.45
2018-05-07T01:24:30.340Z,102218.87
2018-05-07T01:27:33.654Z,102221.66
2018-05-07T01:30:37.237Z,102220.91
2018-05-07T01:33:40.566Z,102219.33
2018-05-07T01:36:43.868Z,102221.23
2018-05-07T01:39:47.198Z,102220.53
2018-05-07T01:42:50.524Z,102220.62
2018-05-07T01:45:53.902Z,102223.78
2018-05-07T01:48:57.228Z,102226.61
2018-05-07T01:52:00.545Z,102224.19
2018-05-07T01:55:03.860Z,102222.22
2018-05-07T01:58:07.255Z,102222.01
2018-05-07T02:01:10.556Z,102218.45
2018-05-07T02:04:13.939Z,102221.35
2018-05-07T02:07:17.324Z,102223.69
2018-05-07T02:10:20.649Z,102227.77
2018-05-07T02:13:24.017Z,102225.48
2018-05-07T02:16:27.329Z,102229.41
2018-05-07T02:19:30.718Z,102225.41
2018-05-07T02:22:34.045Z,102221.27
2018-05-07T02:25:37.359Z,102216.74
2018-05-07T02:28:41.533Z,102218.45
2018-05-07T02:31:44.839Z,102224.03
2018-05-07T02:34:48.155Z,102226.73
2018-05-07T02:37:51.544Z,102218.10
2018-05-07T02:40:54.846Z,102222.45
2018-05-07T02:43:59.682Z,102220.61
2018-05-07T02:47:03.072Z,102209.70
2018-05-07T02:50:06.394Z,102208.77
2018-05-07T02:53:09.759Z,102222.80
2018-05-07T02:56:13.157Z,102221.70
2018-05-07T02:59:16.569Z,102219.43
2018-05-07T03:02:19.961Z,102216.95
2018-05-07T03:05:23.356Z,102209.52
2018-05-07T03:08:26.665Z,102208.09
2018-05-07T03:11:29.974Z,102206.13
2018-05-07T03:14:33.366Z,102206.84
2018-05-07T03:17:36.759Z,102196.89
2018-05-07T03:20:40.776Z,102200.42
2018-05-07T03:23:44.134Z,102200.37
2018-05-07T03:26:47.450Z,102199.73
2018-05-07T03:29:50.766Z,102203.02
2018-05-07T03:32:54.781Z,102213.00
2018-05-07T03:35:58.189Z,102209.30
2018-05-07T03:39:01.509Z,102217.22
2018-05-07T03:42:04.826Z,102219.92
2018-05-07T03:45:08.913Z,102218.27
2018-05-07T03:48:12.231Z,102219.84
2018-05-07T03:51:16.417Z,102209.55
2018-05-07T03:54:19.810Z,102213.92
2018-05-07T03:57:23.209Z,102208.95
2018-05-07T04:00:27.533Z,102204.60
2018-05-07T04:03:30.930Z,102205.59
2018-05-07T04:06:34.334Z,102206.34
2018-05-07T04:09:37.734Z,102208.78
2018-05-07T04:12:41.050Z,102205.99
2018-05-07T04:15:44.424Z,102203.65
2018-05-07T04:19:05.753Z,102192.33
2018-05-07T04:22:26.809Z,102191.80
2018-05-07T04:25:30.892Z,102193.87
2018-05-07T04:28:34.277Z,102187.62
2018-05-07T04:31:37.581Z,102188.77
2018-05-07T04:34:40.913Z,102191.77
2018-05-07T04:37:45.107Z,102196.93
2018-05-07T04:40:48.423Z,102200.41
2018-05-07T04:43:52.626Z,102198.78
2018-05-07T04:46:56.023Z,102200.56
2018-05-07T04:49:59.358Z,102197.91
2018-05-07T04:53:03.529Z,102193.36
2018-05-07T04:56:06.880Z,102193.84
2018-05-07T04:59:13.342Z,102189.81
2018-05-07T05:02:17.412Z,102188.00
2018-05-07T05:05:20.727Z,102184.98
2018-05-07T05:08:24.123Z,102186.80
2018-05-07T05:11:27.448Z,102189.16
2018-05-07T05:14:31.565Z,102188.42
2018-05-07T05:17:36.465Z,102185.33
2018-05-07T05:20:39.864Z,102182.33
2018-05-07T05:23:43.190Z,102186.97
2018-05-07T05:26:46.569Z,102187.56
2018-05-07T05:29:49.912Z,102187.25
2018-05-07T05:32:54.002Z,102192.05
2018-05-07T05:35:57.337Z,102189.06
2018-05-07T05:39:00.673Z,102184.78
2018-05-07T05:42:03.991Z,102184.10
2018-05-07T05:45:07.413Z,102186.99
2018-05-07T05:48:10.674Z,102186.80
2018-05-07T05:51:13.994Z,102180.13
2018-05-07T05:54:18.191Z,102183.89
2018-05-07T05:57:21.510Z,102184.90
2018-05-07T06:00:24.900Z,102183.08
2018-05-07T06:03:28.290Z,102190.00
2018-05-07T06:06:31.609Z,102193.37
2018-05-07T06:09:34.938Z,102183.71
2018-05-07T06:12:38.327Z,102191.96
2018-05-07T06:15:42.431Z,102187.62
2018-05-07T06:18:46.675Z,102191.97
2018-05-07T06:21:50.019Z,102193.70
2018-05-07T06:24:53.358Z,102195.86
2018-05-07T06:27:57.453Z,102192.30
2018-05-07T06:31:00.815Z,102191.39
2018-05-07T06:34:04.143Z,102190.95
2018-05-07T06:37:07.462Z,102201.06
2018-05-07T06:40:11.646Z,102195.73
2018-05-07T06:43:15.050Z,102196.41
2018-05-07T06:46:18.385Z,102200.63
2018-05-07T06:49:22.578Z,102200.47
2018-05-07T06:52:25.899Z,102199.42
2018-05-07T06:55:29.998Z,102197.02
2018-05-07T06:58:33.329Z,102205.69
2018-05-07T07:01:36.671Z,102202.02
2018-05-07T07:04:40.086Z,102197.87
2018-05-07T07:07:43.405Z,102202.86
2018-05-07T07:10:46.774Z,102197.78
2018-05-07T07:13:50.190Z,102200.57
2018-05-07T07:16:53.587Z,102202.92
2018-05-07T07:19:57.792Z,102202.16
2018-05-07T07:23:01.141Z,102201.00
2018-05-07T07:26:05.273Z,102198.92
2018-05-07T07:29:08.615Z,102194.26
2018-05-07T07:32:11.929Z,102194.41
2018-05-07T07:35:15.259Z,102198.02
2018-05-07T07:38:18.577Z,102198.55
2018-05-07T07:41:21.913Z,102198.17
2018-05-07T07:44:25.297Z,102196.91
2018-05-07T07:47:28.699Z,102194.88
2018-05-07T07:50:32.020Z,102199.73
2018-05-07T07:53:35.490Z,102198.03
2018-05-07T07:56:38.863Z,102192.81
2018-05-07T07:59:42.337Z,102195.11
2018-05-07T08:02:46.421Z,102201.30
2018-05-07T08:05:49.744Z,102202.23
2018-05-07T08:08:53.145Z,102202.33
2018-05-07T08:11:56.512Z,102199.26
2018-05-07T08:14:59.869Z,102195.32
2018-05-07T08:18:03.201Z,102192.34
2018-05-07T08:21:06.578Z,102189.73
2018-05-07T08:24:09.915Z,102190.64
2018-05-07T08:27:13.274Z,102197.70
2018-05-07T08:30:16.620Z,102195.52
2018-05-07T08:33:19.942Z,102198.60
2018-05-07T08:36:24.041Z,102196.83
2018-05-07T08:39:27.369Z,102197.30
2018-05-07T08:42:30.721Z,102199.52
2018-05-07T08:45:34.050Z,102196.88
2018-05-07T08:48:38.155Z,102196.42
2018-05-07T08:51:41.494Z,102197.74
2018-05-07T08:54:44.949Z,102197.30
2018-05-07T08:57:48.261Z,102195.11
2018-05-07T09:00:51.705Z,102196.40
2018-05-07T09:03:55.033Z,102190.64
2018-05-07T09:06:58.368Z,102192.38
2018-05-07T09:10:02.452Z,102191.47
2018-05-07T09:13:06.558Z,102197.62
2018-05-07T09:16:09.980Z,102193.66
2018-05-07T09:19:13.362Z,102190.13
2018-05-07T09:22:16.751Z,102190.97
2018-05-07T09:25:20.116Z,102182.13
2018-05-07T09:28:23.438Z,102182.47
2018-05-07T09:31:26.956Z,102181.11
2018-05-07T09:34:30.979Z,102180.20
2018-05-07T09:37:34.362Z,102174.08
2018-05-07T09:40:37.765Z,102171.08
2018-05-07T09:43:41.072Z,102177.36
2018-05-07T09:46:44.464Z,102175.61
2018-05-07T09:49:47.804Z,102168.59
2018-05-07T09:52:51.893Z,102166.40
2018-05-07T09:55:55.281Z,102165.55
2018-05-07T09:58:59.591Z,102166.44
2018-05-07T10:02:02.944Z,102169.52
2018-05-07T10:05:07.052Z,102159.84
2018-05-07T10:08:10.416Z,102155.41
2018-05-07T10:11:13.828Z,102150.98
2018-05-07T10:14:17.142Z,102151.42
2018-05-07T10:17:20.482Z,102152.28
2018-05-07T10:20:23.818Z,102153.61
2018-05-07T10:23:27.122Z,102151.41
2018-05-07T10:26:30.486Z,102150.96
2018-05-07T10:29:33.881Z,102147.03
2018-05-07T10:32:38.024Z,102146.62
2018-05-07T10:35:41.438Z,102142.26
2018-05-07T10:38:44.791Z,102135.25
2018-05-07T10:41:48.121Z,102136.59
2018-05-07T10:44:51.462Z,102139.66
2018-05-07T10:47:55.653Z,102142.73
2018-05-07T10:50:59.053Z,102137.02
2018-05-07T10:54:02.469Z,102133.48
2018-05-07T10:57:05.847Z,102133.06
2018-05-07T11:00:09.203Z,102134.83
2018-05-07T11:03:12.534Z,102136.56
2018-05-07T11:06:15.938Z,102130.42
2018-05-07T11:09:19.248Z,102129.98
2018-05-07T11:12:22.589Z,102125.14
2018-05-07T11:15:26.687Z,102123.80
2018-05-07T11:18:30.053Z,102123.80
2018-05-07T11:21:33.470Z,102118.94
2018-05-07T11:24:36.871Z,102118.52
2018-05-07T11:27:41.797Z,102112.81
2018-05-07T11:30:45.148Z,102116.72
2018-05-07T11:33:48.465Z,102113.66
2018-05-07T11:36:52.552Z,102111.02
2018-05-07T11:39:56.658Z,102109.67
2018-05-07T11:43:00.740Z,102109.28
2018-05-07T11:46:04.200Z,102111.48
2018-05-07T11:49:07.522Z,102104.87
2018-05-07T11:52:10.873Z,102103.98
2018-05-07T11:55:14.970Z,102103.55
2018-05-07T11:58:18.308Z,102095.13
2018-05-07T12:01:21.657Z,102093.44
2018-05-07T12:04:24.997Z,102092.55
2018-05-07T12:07:29.157Z,102093.00
2018-05-07T12:10:33.230Z,102095.20
2018-05-07T12:13:37.309Z,102080.25
2018-05-07T12:16:40.706Z,102082.03
2018-05-07T12:19:44.025Z,102077.20
2018-05-07T12:22:48.116Z,102073.25
2018-05-07T12:25:51.518Z,102068.39
2018-05-07T12:28:54.838Z,102071.47
2018-05-07T12:31:58.266Z,102066.20
2018-05-07T12:35:01.625Z,102062.69
2018-05-07T12:38:05.039Z,102059.16
2018-05-07T12:41:08.400Z,102055.20
2018-05-07T12:44:11.818Z,102050.80
2018-05-07T12:47:15.204Z,102059.16
2018-05-07T12:50:18.561Z,102052.12
2018-05-07T12:53:21.911Z,102047.28
2018-05-07T12:56:25.245Z,102048.61
2018-05-07T12:59:29.328Z,102044.20
2018-05-07T13:02:32.650Z,102038.50
2018-05-07T13:05:35.993Z,102036.75
2018-05-07T13:08:39.408Z,102034.09
2018-05-07T13:11:42.751Z,102029.25
2018-05-07T13:14:46.828Z,102024.88
2018-05-07T13:17:50.153Z,102028.81
2018-05-07T13:20:53.489Z,102017.84
2018-05-07T13:23:56.831Z,102020.01
2018-05-07T13:27:00.224Z,102022.19
2018-05-07T13:30:03.630Z,102017.81
2018-05-07T13:33:06.952Z,102015.59
2018-05-07T13:36:11.092Z,102012.47
2018-05-07T13:39:15.265Z,102004.96
2018-05-07T13:42:18.596Z,101998.84
2018-05-07T13:45:22.782Z,102000.09
2018-05-07T13:48:26.190Z,101997.48
2018-05-07T13:51:29.579Z,101995.30
2018-05-07T13:54:32.909Z,101991.77
2018-05-07T13:57:36.994Z,101995.63
2018-05-07T14:00:40.330Z,101988.91
2018-05-07T14:03:44.409Z,101982.23
2018-05-07T14:06:47.805Z,101982.74
2018-05-07T14:09:51.211Z,101983.73
2018-05-07T14:12:54.606Z,101984.16
2018-05-07T14:15:58.006Z,101985.08
2018-05-07T14:19:01.401Z,101978.05
2018-05-07T14:22:04.819Z,101976.34
2018-05-07T14:25:08.199Z,101969.73
2018-05-07T14:28:11.661Z,101964.47
2018-05-07T14:31:15.008Z,101963.14
2018-05-07T14:34:18.331Z,101968.86
2018-05-07T14:37:21.708Z,101965.27
2018-05-07T14:40:25.112Z,101967.03
2018-05-07T14:43:28.513Z,101968.80
2018-05-07T14:46:31.856Z,101962.67
2018-05-07T14:49:35.190Z,101962.66
2018-05-07T14:52:38.522Z,101956.03
2018-05-07T14:55:41.859Z,101950.78
2018-05-07T14:58:45.261Z,101949.39
2018-05-07T15:01:48.593Z,101948.11
2018-05-07T15:04:51.995Z,101943.74
2018-05-07T15:07:55.324Z,101942.92
2018-05-07T15:10:59.407Z,101938.52
2018-05-07T15:14:20.412Z,101935.28
2018-05-07T15:17:23.768Z,101937.63
2018-05-07T15:20:27.948Z,101925.39
2018-05-07T15:23:31.288Z,101925.44
2018-05-07T15:26:34.626Z,101929.86
2018-05-07T15:29:37.942Z,101923.28
2018-05-07T15:32:41.336Z,101927.48
2018-05-07T15:35:44.749Z,101927.41
2018-05-07T15:38:48.060Z,101924.55
2018-05-07T15:41:51.443Z,101927.54
2018-05-07T15:44:54.781Z,101919.27
2018-05-07T15:47:58.874Z,101921.27
2018-05-07T15:51:03.068Z,101919.28
2018-05-07T15:54:06.394Z,101917.65
2018-05-07T15:57:10.497Z,101910.52
2018-05-07T16:00:13.889Z,101907.41
2018-05-07T16:03:17.305Z,101910.25
2018-05-07T16:06:20.704Z,101906.17
2018-05-07T16:09:23.976Z,101906.95
2018-05-07T16:12:27.314Z,101900.44
2018-05-07T16:15:31.598Z,101908.54
2018-05-07T16:18:35.664Z,101900.98
2018-05-07T16:21:39.865Z,101893.63
2018-05-07T16:24:43.174Z,101894.64
2018-05-07T16:27:46.502Z,101892.53
2018-05-07T16:30:49.927Z,101894.08
2018-05-07T16:33:53.317Z,101887.80
2018-05-07T16:36:56.718Z,101884.16
2018-05-07T16:40:00.061Z,101881.98
2018-05-07T16:43:04.155Z,101878.16
2018-05-07T16:46:07.538Z,101881.80
2018-05-07T16:49:10.931Z,101878.02
2018-05-07T16:52:14.276Z,101876.27
2018-05-07T16:55:17.639Z,101872.00
2018-05-07T16:58:20.982Z,101868.68
2018-05-07T17:01:24.310Z,101867.63
2018-05-07T17:04:27.720Z,101862.80
2018-05-07T17:07:31.122Z,101865.50
2018-05-07T17:10:34.443Z,101863.75
2018-05-07T17:13:37.787Z,101859.66
2018-05-07T17:16:41.226Z,101860.18
2018-05-07T17:19:44.549Z,101861.28
2018-05-07T17:22:48.771Z,101857.78
2018-05-07T17:25:52.948Z,101856.58
2018-05-07T17:28:56.283Z,101849.88
2018-05-07T17:32:00.422Z,101850.72
2018-05-07T17:35:03.735Z,101847.31
2018-05-07T17:38:07.066Z,101841.19
2018-05-07T17:41:10.476Z,101847.25
2018-05-07T17:44:31.741Z,101849.80
2018-05-07T17:47:52.904Z,101847.50
2018-05-07T17:50:56.212Z,101844.83
2018-05-07T17:53:59.603Z,101843.01
2018-05-07T17:57:02.990Z,101848.22
2018-05-07T18:00:06.322Z,101843.30
2018-05-07T18:03:10.432Z,101841.04
2018-05-07T18:06:13.807Z,101848.39
2018-05-07T18:09:17.152Z,101848.34
2018-05-07T18:12:20.490Z,101851.34
2018-05-07T18:15:23.955Z,101846.47
2018-05-07T18:18:27.313Z,101842.04
2018-05-07T18:21:30.704Z,101834.53
2018-05-07T18:24:34.095Z,101828.33
2018-05-07T18:27:37.497Z,101833.53
2018-05-07T18:30:40.824Z,101830.35
2018-05-07T18:33:45.034Z,101828.41
2018-05-07T18:36:49.153Z,101834.43
2018-05-07T18:39:52.535Z,101829.07
2018-05-07T18:42:55.864Z,101832.86
2018-05-07T18:45:59.959Z,101833.58
2018-05-07T18:49:03.349Z,101825.59
2018-05-07T18:52:06.766Z,101827.24
2018-05-07T18:55:10.078Z,101824.02
2018-05-07T18:58:14.268Z,101830.47
2018-05-07T19:01:17.600Z,101826.86
2018-05-07T19:04:21.785Z,101823.16
2018-05-07T19:07:25.183Z,101831.34
2018-05-07T19:10:30.519Z,101831.30
2018-05-07T19:13:33.951Z,101830.39
2018-05-07T19:16:37.274Z,101829.04
2018-05-07T19:19:40.618Z,101821.98
2018-05-07T19:22:43.965Z,101829.84
2018-05-07T19:25:48.155Z,101830.20
2018-05-07T19:28:51.487Z,101831.86
2018-05-07T19:31:54.822Z,101835.27
2018-05-07T19:34:58.273Z,101829.08
2018-05-07T19:38:01.728Z,101837.24
2018-05-07T19:41:05.958Z,101840.16
2018-05-07T19:44:09.346Z,101836.80
2018-05-07T19:47:12.753Z,101840.92
2018-05-07T19:50:16.062Z,101840.16
2018-05-07T19:53:19.416Z,101836.02
2018-05-07T19:56:22.885Z,101837.00
2018-05-07T19:59:26.219Z,101838.88
2018-05-07T20:02:29.637Z,101835.67
2018-05-07T20:05:32.959Z,101835.45
2018-05-07T20:08:36.288Z,101832.17
2018-05-07T20:11:39.848Z,101833.70
2018-05-07T20:14:43.233Z,101823.19
2018-05-07T20:17:46.640Z,101825.81
2018-05-07T20:20:50.043Z,101831.14
2018-05-07T20:23:53.442Z,101832.52
2018-05-07T20:26:56.804Z,101823.47
2018-05-07T20:30:00.113Z,101824.03
2018-05-07T20:33:03.538Z,101820.70
2018-05-07T20:36:06.953Z,101823.42
2018-05-07T20:39:10.286Z,101815.14
2018-05-07T20:42:13.621Z,101813.73
2018-05-07T20:45:17.050Z,101808.00
2018-05-07T20:48:20.402Z,101808.83
2018-05-07T20:51:23.717Z,101803.94
2018-05-07T20:54:27.054Z,101800.44
2018-05-07T20:57:30.376Z,101802.69
2018-05-07T21:00:33.715Z,101798.81
2018-05-07T21:03:37.024Z,101794.36
2018-05-07T21:06:40.421Z,101794.78
2018-05-07T21:09:43.822Z,101794.69
2018-05-07T21:12:47.239Z,101793.31
2018-05-07T21:15:50.612Z,101789.73
2018-05-07T21:18:53.958Z,101788.86
2018-05-07T21:21:58.037Z,101796.64
2018-05-07T21:25:01.386Z,101791.69
2018-05-07T21:28:04.697Z,101794.17
2018-05-07T21:31:08.123Z,101794.00
2018-05-07T21:34:11.531Z,101789.09
2018-05-07T21:37:14.882Z,101791.16
2018-05-07T21:40:18.357Z,101788.43
2018-05-07T21:43:21.693Z,101785.77
2018-05-07T21:46:25.010Z,101786.25
2018-05-07T21:49:28.341Z,101790.18
2018-05-07T21:52:31.825Z,101792.79
2018-05-07T21:55:35.186Z,101786.77
2018-05-07T21:58:38.492Z,101789.97
2018-05-07T22:01:41.845Z,101780.84
2018-05-07T22:04:46.670Z,101786.17
2018-05-07T22:07:50.015Z,101775.36
2018-05-07T22:10:53.330Z,101774.54
2018-05-07T22:13:56.665Z,101781.55
2018-05-07T22:17:00.046Z,101778.57
2018-05-07T22:20:03.385Z,101779.50
2018-05-07T22:23:07.457Z,101774.64
2018-05-07T22:26:10.794Z,101779.38
2018-05-07T22:29:15.645Z,101779.27
2018-05-07T22:32:19.076Z,101774.73
2018-05-07T22:35:22.481Z,101774.62
2018-05-07T22:38:25.855Z,101772.22
2018-05-07T22:41:29.156Z,101762.03
2018-05-07T22:44:32.580Z,101765.63
2018-05-07T22:47:35.992Z,101767.05
2018-05-07T22:50:39.377Z,101763.27
2018-05-07T22:53:42.693Z,101758.30
2018-05-07T22:56:46.039Z,101755.05
2018-05-07T22:59:49.384Z,101751.39
2018-05-07T23:02:52.784Z,101749.56
2018-05-07T23:05:56.188Z,101752.05
2018-05-07T23:08:59.582Z,101758.44
2018-05-07T23:12:04.317Z,101757.06
2018-05-07T23:15:07.643Z,101753.95
2018-05-07T23:18:11.010Z,101748.16
2018-05-07T23:21:14.409Z,101748.86
2018-05-07T23:24:17.721Z,101749.22
2018-05-07T23:27:21.100Z,101743.49
2018-05-07T23:30:24.410Z,101739.89
2018-05-07T23:33:27.752Z,101735.48
2018-05-07T23:36:31.930Z,101733.35
2018-05-07T23:39:35.312Z,101730.25
2018-05-07T23:42:38.650Z,101729.70
2018-05-07T23:45:42.762Z,101730.20
2018-05-07T23:48:46.090Z,101725.13
2018-05-07T23:51:49.538Z,101724.83
2018-05-07T23:54:52.930Z,101724.02
2018-05-07T23:57:56.330Z,101716.99
